Time,TemperatureF,DewpointF,PressureIn,WindDirection,WindDirectionDegrees,WindSpeedMPH,WindSpeedGustMPH,Humidity,HourlyPrecipIn,Conditions,Clouds,dailyrainin,SolarRadiationWatts/m^2,SoftwareType,DateUTC
2013-01-04 00:04:00,9.4,5.8,30.66,East,82,0.0,0.0,85,0.00,,CLR,0.00,0.00,VWS V14.01,2013-01-04 08:04:00,
2013-01-04 00:09:00,9.2,5.6,30.66,East,82,0.0,0.0,85,0.00,,CLR,0.00,0.00,VWS V14.01,2013-01-04 08:09:00,
2013-01-04 00:14:00,9.0,5.4,30.66,East,82,0.0,0.0,85,0.00,,CLR,0.00,0.00,VWS V14.01,2013-01-04 08:14:00,
2013-01-04 00:19:00,8.8,5.0,30.66,East,82,0.0,0.0,84,0.00,,CLR,0.00,0.00,VWS V14.01,2013-01-04 08:19:00,
2013-01-04 00:24:00,8.7,4.9,30.66,East,82,0.0,0.0,84,0.00,,CLR,0.00,0.00,VWS V14.01,2013-01-04 08:24:00,
2013-01-04 00:29:00,8.6,4.8,30.66,East,82,0.0,0.0,84,0.00,,CLR,0.00,0.00,VWS V14.01,2013-01-04 08:29:00,
2013-01-04 00:34:00,8.3,4.5,30.66,East,82,0.0,0.0,84,0.00,,CLR,0.00,0.00,VWS V14.01,2013-01-04 08:34:00,
2013-01-04 00:39:00,8.2,4.6,30.66,East,82,0.0,0.0,85,0.00,,CLR,0.00,0.00,VWS V14.01,2013-01-04 08:39:00,
2013-01-04 00:44:00,8.1,4.5,30.66,East,82,0.0,0.0,85,0.00,,CLR,0.00,0.00,VWS V14.01,2013-01-04 08:44:00,
2013-01-04 00:49:00,8.1,4.5,30.66,East,82,0.0,1.0,85,0.00,,CLR,0.00,0.00,VWS V14.01,2013-01-04 08:49:00,
2013-01-04 00:54:00,8.1,4.5,30.66,East,82,1.0,2.0,85,0.00,,CLR,0.00,0.00,VWS V14.01,2013-01-04 08:54:00,
2013-01-04 00:59:00,8.1,4.8,30.66,East,82,1.0,2.0,86,0.00,,CLR,0.00,0.00,VWS V14.01,2013-01-04 08:59:00,
2013-01-04 01:04:00,8.1,4.8,30.66,East,82,0.0,1.0,86,0.00,,CLR,0.00,0.00,VWS V14.01,2013-01-04 09:04:00,
2013-01-04 01:09:00,8.0,4.7,30.66,East,82,0.0,1.0,86,0.00,,CLR,0.00,0.00,VWS V14.01,2013-01-04 09:09:00,
2013-01-04 01:14:00,8.0,4.7,30.66,East,82,0.0,0.0,86,0.00,,CLR,0.00,0.00,VWS V14.01,2013-01-04 09:14:00,
2013-01-04 01:19:00,7.9,4.3,30.66,East,82,0.0,0.0,85,0.00,,CLR,0.00,0.00,VWS V14.01,2013-01-04 09:19:00,
2013-01-04 01:24:00,7.8,4.2,30.66,East,82,0.0,0.0,85,0.00,,CLR,0.00,0.00,VWS V14.01,2013-01-04 09:24:00,
2013-01-04 01:29:00,7.7,4.1,30.66,East,82,0.0,0.0,85,0.00,,CLR,0.00,0.00,VWS V14.01,2013-01-04 09:29:00,
2013-01-04 01:34:00,7.6,4.0,30.66,East,82,0.0,0.0,85,0.00,,CLR,0.00,0.00,VWS V14.01,2013-01-04 09:34:00,
2013-01-04 01:39:00,7.5,3.9,30.66,East,82,0.0,0.0,85,0.00,,CLR,0.00,0.00,VWS V14.01,2013-01-04 09:39:00,
2013-01-04 01:44:00,7.3,3.8,30.66,East,82,0.0,0.0,85,0.00,,CLR,0.00,0.00,VWS V14.01,2013-01-04 09:44:00,
2013-01-04 01:49:00,7.2,3.7,30.66,East,82,0.0,0.0,85,0.00,,CLR,0.00,0.00,VWS V14.01,2013-01-04 09:49:00,
2013-01-04 01:55:00,7.1,3.5,30.66,East,82,0.0,0.0,85,0.00,,CLR,0.00,0.00,VWS V14.01,2013-01-04 09:55:00,
2013-01-04 02:00:00,7.0,3.5,30.66,East,82,0.0,0.0,85,0.00,,CLR,0.00,0.00,VWS V14.01,2013-01-04 10:00:00,
2013-01-04 02:05:00,6.9,3.3,30.66,East,82,0.0,0.0,85,0.00,,CLR,0.00,0.00,VWS V14.01,2013-01-04 10:05:00,
2013-01-04 02:10:00,6.9,3.3,30.67,East,82,0.0,0.0,85,0.00,,CLR,0.00,0.00,VWS V14.01,2013-01-04 10:10:00,
2013-01-04 02:15:00,6.8,3.5,30.67,East,82,0.0,0.0,86,0.00,,CLR,0.00,0.00,VWS V14.01,2013-01-04 10:15:00,
2013-01-04 02:20:00,6.7,3.4,30.66,East,82,0.0,0.0,86,0.00,,CLR,0.00,0.00,VWS V14.01,2013-01-04 10:20:00,
2013-01-04 02:25:00,6.7,3.4,30.66,East,82,0.0,0.0,86,0.00,,CLR,0.00,0.00,VWS V14.01,2013-01-04 10:25:00,
2013-01-04 02:30:00,6.6,3.3,30.66,East,82,0.0,0.0,86,0.00,,CLR,0.00,0.00,VWS V14.01,2013-01-04 10:30:00,
2013-01-04 02:35:00,6.6,3.3,30.67,East,82,0.0,0.0,86,0.00,,CLR,0.00,0.00,VWS V14.01,2013-01-04 10:35:00,
2013-01-04 02:40:00,6.6,3.3,30.67,East,82,0.0,0.0,86,0.00,,CLR,0.00,0.00,VWS V14.01,2013-01-04 10:40:00,
2013-01-04 02:45:00,6.6,3.3,30.67,East,82,0.0,0.0,86,0.00,,CLR,0.00,0.00,VWS V14.01,2013-01-04 10:45:00,
2013-01-04 02:50:00,6.5,3.2,30.67,East,82,0.0,0.0,86,0.00,,CLR,0.00,0.00,VWS V14.01,2013-01-04 10:50:00,
2013-01-04 02:55:00,6.5,3.2,30.67,East,82,0.0,0.0,86,0.00,,CLR,0.00,0.00,VWS V14.01,2013-01-04 10:55:00,
2013-01-04 03:00:00,6.4,3.1,30.67,East,82,0.0,0.0,86,0.00,,CLR,0.00,0.00,VWS V14.01,2013-01-04 11:00:00,
2013-01-04 03:05:00,6.3,3.0,30.67,East,82,0.0,0.0,86,0.00,,CLR,0.00,0.00,VWS V14.01,2013-01-04 11:05:00,
2013-01-04 03:10:00,6.1,2.6,30.66,East,82,0.0,0.0,85,0.00,,CLR,0.00,0.00,VWS V14.01,2013-01-04 11:10:00,
2013-01-04 03:15:00,5.9,2.4,30.66,East,82,0.0,0.0,85,0.00,,CLR,0.00,0.00,VWS V14.01,2013-01-04 11:15:00,
2013-01-04 03:20:00,5.8,2.3,30.67,East,82,0.0,0.0,85,0.00,,CLR,0.00,0.00,VWS V14.01,2013-01-04 11:20:00,
2013-01-04 03:25:00,5.7,2.2,30.67,East,82,0.0,0.0,85,0.00,,CLR,0.00,0.00,VWS V14.01,2013-01-04 11:25:00,
2013-01-04 03:30:00,5.7,2.2,30.67,East,82,0.0,0.0,85,0.00,,CLR,0.00,0.00,VWS V14.01,2013-01-04 11:30:00,
2013-01-04 03:35:00,5.6,2.1,30.66,East,82,0.0,0.0,85,0.00,,CLR,0.00,0.00,VWS V14.01,2013-01-04 11:35:00,
2013-01-04 03:40:00,5.6,2.1,30.67,East,82,0.0,0.0,85,0.00,,CLR,0.00,0.00,VWS V14.01,2013-01-04 11:40:00,
2013-01-04 03:45:00,5.5,2.0,30.67,East,82,0.0,0.0,85,0.00,,CLR,0.00,0.00,VWS V14.01,2013-01-04 11:45:00,
2013-01-04 03:50:00,5.4,1.9,30.67,East,82,0.0,0.0,85,0.00,,CLR,0.00,0.00,VWS V14.01,2013-01-04 11:50:00,
2013-01-04 03:55:00,5.4,1.9,30.66,East,82,0.0,0.0,85,0.00,,CLR,0.00,0.00,VWS V14.01,2013-01-04 11:55:00,
2013-01-04 04:00:00,5.3,1.8,30.66,East,82,0.0,0.0,85,0.00,,CLR,0.00,0.00,VWS V14.01,2013-01-04 12:00:00,
2013-01-04 04:05:00,5.2,1.7,30.66,East,82,0.0,0.0,85,0.00,,CLR,0.00,0.00,VWS V14.01,2013-01-04 12:05:00,
2013-01-04 04:10:00,5.2,1.7,30.66,East,82,0.0,0.0,85,0.00,,CLR,0.00,0.00,VWS V14.01,2013-01-04 12:10:00,
2013-01-04 04:15:00,5.1,1.6,30.66,East,82,0.0,0.0,85,0.00,,CLR,0.00,0.00,VWS V14.01,2013-01-04 12:15:00,
2013-01-04 04:20:00,5.0,1.5,30.66,East,82,0.0,0.0,85,0.00,,CLR,0.00,0.00,VWS V14.01,2013-01-04 12:20:00,
2013-01-04 04:25:00,5.0,1.5,30.66,East,82,0.0,0.0,85,0.00,,CLR,0.00,0.00,VWS V14.01,2013-01-04 12:25:00,
2013-01-04 04:30:00,5.0,1.7,30.66,East,82,0.0,0.0,86,0.00,,CLR,0.00,0.00,VWS V14.01,2013-01-04 12:30:00,
2013-01-04 04:35:00,4.9,1.6,30.66,East,82,0.0,0.0,86,0.00,,CLR,0.00,0.00,VWS V14.01,2013-01-04 12:35:00,
2013-01-04 04:40:00,4.9,1.6,30.66,East,82,0.0,0.0,86,0.00,,CLR,0.00,0.00,VWS V14.01,2013-01-04 12:40:00,
2013-01-04 04:45:00,4.9,1.6,30.66,East,82,0.0,0.0,86,0.00,,CLR,0.00,0.00,VWS V14.01,2013-01-04 12:45:00,
2013-01-04 04:50:00,4.8,1.5,30.66,East,82,0.0,0.0,86,0.00,,CLR,0.00,0.00,VWS V14.01,2013-01-04 12:50:00,
2013-01-04 04:55:00,4.8,1.5,30.66,East,82,0.0,0.0,86,0.00,,CLR,0.00,0.00,VWS V14.01,2013-01-04 12:55:00,
2013-01-04 05:00:00,4.8,1.5,30.66,East,82,0.0,0.0,86,0.00,,CLR,0.00,0.00,VWS V14.01,2013-01-04 13:00:00,
2013-01-04 05:05:00,4.7,1.4,30.67,East,82,0.0,0.0,86,0.00,,CLR,0.00,0.00,VWS V14.01,2013-01-04 13:05:00,
2013-01-04 05:10:00,4.7,1.4,30.67,East,82,0.0,0.0,86,0.00,,CLR,0.00,0.00,VWS V14.01,2013-01-04 13:10:00,
2013-01-04 05:15:00,4.7,1.4,30.67,East,82,0.0,0.0,86,0.00,,CLR,0.00,0.00,VWS V14.01,2013-01-04 13:15:00,
2013-01-04 05:20:00,4.6,1.3,30.67,East,82,0.0,0.0,86,0.00,,CLR,0.00,0.00,VWS V14.01,2013-01-04 13:20:00,
2013-01-04 05:25:00,4.5,1.0,30.67,East,82,0.0,0.0,85,0.00,,CLR,0.00,0.00,VWS V14.01,2013-01-04 13:25:00,
2013-01-04 05:30:00,4.5,1.0,30.67,East,82,0.0,0.0,85,0.00,,CLR,0.00,0.00,VWS V14.01,2013-01-04 13:30:00,
2013-01-04 05:35:00,4.5,1.0,30.67,East,82,0.0,0.0,85,0.00,,CLR,0.00,0.00,VWS V14.01,2013-01-04 13:35:00,
2013-01-04 05:40:00,4.4,0.9,30.67,East,82,0.0,0.0,85,0.00,,CLR,0.00,0.00,VWS V14.01,2013-01-04 13:40:00,
2013-01-04 05:45:00,4.4,0.9,30.67,East,82,0.0,0.0,85,0.00,,CLR,0.00,0.00,VWS V14.01,2013-01-04 13:45:00,
2013-01-04 05:50:00,4.4,1.1,30.67,East,82,0.0,0.0,86,0.00,,CLR,0.00,0.00,VWS V14.01,2013-01-04 13:50:00,
2013-01-04 05:55:00,4.3,0.8,30.66,East,82,0.0,0.0,85,0.00,,CLR,0.00,0.00,VWS V14.01,2013-01-04 13:55:00,
2013-01-04 06:00:00,4.2,0.7,30.66,East,82,0.0,0.0,85,0.00,,CLR,0.00,0.00,VWS V14.01,2013-01-04 14:00:00,
2013-01-04 06:05:00,4.2,0.7,30.66,East,82,0.0,0.0,85,0.00,,CLR,0.00,0.00,VWS V14.01,2013-01-04 14:05:00,
2013-01-04 06:10:00,4.2,0.7,30.66,East,82,0.0,0.0,85,0.00,,CLR,0.00,0.00,VWS V14.01,2013-01-04 14:10:00,
2013-01-04 06:15:00,4.2,0.9,30.67,East,82,0.0,0.0,86,0.00,,CLR,0.00,0.00,VWS V14.01,2013-01-04 14:15:00,
2013-01-04 06:20:00,4.2,0.9,30.67,East,82,0.0,0.0,86,0.00,,CLR,0.00,0.00,VWS V14.01,2013-01-04 14:20:00,
2013-01-04 06:25:00,4.2,0.9,30.66,East,82,0.0,0.0,86,0.00,,CLR,0.00,0.00,VWS V14.01,2013-01-04 14:25:00,
2013-01-04 06:30:00,4.2,0.9,30.67,East,82,0.0,1.0,86,0.00,,CLR,0.00,0.00,VWS V14.01,2013-01-04 14:30:00,
2013-01-04 06:35:00,4.2,0.9,30.67,East,82,0.0,1.0,86,0.00,,CLR,0.00,0.00,VWS V14.01,2013-01-04 14:35:00,
2013-01-04 06:40:00,4.2,0.9,30.67,East,82,0.0,0.0,86,0.00,,CLR,0.00,0.00,VWS V14.01,2013-01-04 14:40:00,
2013-01-04 06:45:00,4.1,0.9,30.67,East,82,0.0,0.0,86,0.00,,CLR,0.00,0.00,VWS V14.01,2013-01-04 14:45:00,
2013-01-04 06:50:00,4.1,0.9,30.67,East,82,0.0,0.0,86,0.00,,CLR,0.00,0.00,VWS V14.01,2013-01-04 14:50:00,
2013-01-04 06:55:00,4.1,0.9,30.67,East,82,0.0,0.0,86,0.00,,CLR,0.00,0.00,VWS V14.01,2013-01-04 14:55:00,
2013-01-04 07:00:00,4.1,0.9,30.67,East,82,0.0,0.0,86,0.00,,SCT220,0.00,0.00,VWS V14.01,2013-01-04 15:00:00,
2013-01-04 07:05:00,4.0,0.8,30.67,East,82,0.0,0.0,86,0.00,,SCT220,0.00,0.00,VWS V14.01,2013-01-04 15:05:00,
2013-01-04 07:10:00,4.0,0.8,30.67,East,82,0.0,0.0,86,0.00,,SCT220,0.00,5.00,VWS V14.01,2013-01-04 15:10:00,
2013-01-04 07:15:00,4.0,0.5,30.67,East,82,0.0,0.0,85,0.00,,SCT220,0.00,7.00,VWS V14.01,2013-01-04 15:15:00,
2013-01-04 07:20:00,3.9,0.4,30.67,East,82,0.0,0.0,85,0.00,,SCT220,0.00,9.00,VWS V14.01,2013-01-04 15:20:00,
2013-01-04 07:25:00,3.9,0.4,30.67,East,82,0.0,0.0,85,0.00,,SCT220,0.00,12.00,VWS V14.01,2013-01-04 15:25:00,
2013-01-04 07:30:00,3.9,0.4,30.67,East,82,0.0,0.0,85,0.00,,SCT220,0.00,14.00,VWS V14.01,2013-01-04 15:30:00,
2013-01-04 07:35:00,4.2,0.9,30.68,East,82,0.0,0.0,86,0.00,,SCT220,0.00,16.00,VWS V14.01,2013-01-04 15:35:00,
2013-01-04 07:40:00,4.7,1.4,30.68,East,82,0.0,0.0,86,0.00,,SCT220,0.00,23.00,VWS V14.01,2013-01-04 15:40:00,
2013-01-04 07:45:00,5.6,2.3,30.68,East,82,0.0,0.0,86,0.00,,SCT220,0.00,21.00,VWS V14.01,2013-01-04 15:45:00,
2013-01-04 07:50:00,6.4,3.1,30.68,East,82,0.0,0.0,86,0.00,,SCT220,0.00,25.00,VWS V14.01,2013-01-04 15:50:00,
2013-01-04 07:55:00,7.3,4.2,30.68,East,82,0.0,0.0,87,0.00,,SCT220,0.00,30.00,VWS V14.01,2013-01-04 15:55:00,
2013-01-04 08:00:00,7.7,4.4,30.68,East,82,0.0,0.0,86,0.00,,SCT220,0.00,35.00,VWS V14.01,2013-01-04 16:00:00,
2013-01-04 08:05:00,8.1,5.0,30.69,East,82,0.0,0.0,87,0.00,,SCT220,0.00,39.00,VWS V14.01,2013-01-04 16:05:00,
2013-01-04 08:11:00,8.7,5.6,30.69,East,82,0.0,0.0,87,0.00,,SCT220,0.00,49.00,VWS V14.01,2013-01-04 16:11:00,
2013-01-04 08:16:00,10.2,7.4,30.68,East,82,0.0,0.0,88,0.00,,SCT220,0.00,63.00,VWS V14.01,2013-01-04 16:16:00,
2013-01-04 08:21:00,11.0,8.1,30.68,East,82,0.0,0.0,88,0.00,,SCT220,0.00,77.00,VWS V14.01,2013-01-04 16:21:00,
2013-01-04 08:26:00,11.2,8.4,30.69,East,82,0.0,0.0,88,0.00,,SCT220,0.00,91.00,VWS V14.01,2013-01-04 16:26:00,
2013-01-04 08:31:00,11.4,8.3,30.68,East,82,0.0,0.0,87,0.00,,SCT220,0.00,104.00,VWS V14.01,2013-01-04 16:31:00,
2013-01-04 08:36:00,12.1,9.2,30.69,East,82,0.0,0.0,88,0.00,,SCT220,0.00,111.00,VWS V14.01,2013-01-04 16:36:00,
2013-01-04 08:41:00,12.0,8.9,30.69,East,82,0.0,0.0,87,0.00,,SCT220,0.00,109.00,VWS V14.01,2013-01-04 16:41:00,
2013-01-04 08:46:00,12.3,8.9,30.69,East,82,0.0,0.0,86,0.00,,SCT220,0.00,109.00,VWS V14.01,2013-01-04 16:46:00,
2013-01-04 08:51:00,13.1,9.7,30.69,East,82,0.0,0.0,86,0.00,,SCT220,0.00,135.00,VWS V14.01,2013-01-04 16:51:00,
2013-01-04 08:56:00,14.2,11.1,30.69,East,82,0.0,0.0,87,0.00,,SCT220,0.00,169.00,VWS V14.01,2013-01-04 16:56:00,
2013-01-04 09:01:00,15.4,12.2,30.69,East,82,0.0,0.0,87,0.00,,BKN220,0.00,185.00,VWS V14.01,2013-01-04 17:01:00,
2013-01-04 09:06:00,15.5,11.8,30.69,East,82,0.0,1.0,85,0.00,,BKN220,0.00,195.00,VWS V14.01,2013-01-04 17:06:00,
2013-01-04 09:11:00,15.6,11.6,30.69,East,82,0.0,0.0,84,0.00,,BKN220,0.00,209.00,VWS V14.01,2013-01-04 17:11:00,
2013-01-04 09:16:00,15.8,11.8,30.69,East,82,0.0,1.0,84,0.00,,BKN220,0.00,218.00,VWS V14.01,2013-01-04 17:16:00,
2013-01-04 09:21:00,16.5,12.5,30.69,East,82,1.0,1.0,84,0.00,,BKN220,0.00,229.00,VWS V14.01,2013-01-04 17:21:00,
2013-01-04 09:26:00,16.9,12.6,30.69,East,82,0.0,0.0,83,0.00,,BKN220,0.00,239.00,VWS V14.01,2013-01-04 17:26:00,
2013-01-04 09:31:00,17.2,12.7,30.70,East,82,0.0,0.0,82,0.00,,BKN220,0.00,250.00,VWS V14.01,2013-01-04 17:31:00,
2013-01-04 09:36:00,16.9,12.1,30.70,East,82,1.0,2.0,81,0.00,,BKN220,0.00,258.00,VWS V14.01,2013-01-04 17:36:00,
2013-01-04 09:41:00,18.1,13.3,30.70,East,82,0.0,0.0,81,0.00,,BKN220,0.00,271.00,VWS V14.01,2013-01-04 17:41:00,
2013-01-04 09:46:00,20.4,15.5,30.70,East,82,0.0,0.0,81,0.00,,BKN220,0.00,285.00,VWS V14.01,2013-01-04 17:46:00,
2013-01-04 09:51:00,18.8,12.8,30.70,SE,125,0.0,0.0,77,0.00,,BKN220,0.00,295.00,VWS V14.01,2013-01-04 17:51:00,
2013-01-04 09:56:00,19.7,14.3,30.70,SE,125,0.0,0.0,79,0.00,,BKN220,0.00,306.00,VWS V14.01,2013-01-04 17:56:00,
2013-01-04 10:01:00,19.4,13.4,30.70,SE,125,0.0,0.0,77,0.00,,BKN220,0.00,316.00,VWS V14.01,2013-01-04 18:01:00,
2013-01-04 10:06:00,20.0,14.0,30.69,SE,125,0.0,0.0,77,0.00,,BKN220,0.00,348.00,VWS V14.01,2013-01-04 18:06:00,
2013-01-04 10:11:00,20.7,14.4,30.69,SE,125,0.0,0.0,76,0.00,,BKN220,0.00,362.00,VWS V14.01,2013-01-04 18:11:00,
2013-01-04 10:16:00,19.6,12.7,30.69,SE,125,0.0,0.0,74,0.00,,BKN220,0.00,369.00,VWS V14.01,2013-01-04 18:16:00,
2013-01-04 10:21:00,20.3,14.0,30.69,SE,126,0.0,1.0,76,0.00,,BKN220,0.00,378.00,VWS V14.01,2013-01-04 18:21:00,
2013-01-04 10:26:00,20.6,13.9,30.69,SE,126,0.0,2.0,75,0.00,,BKN220,0.00,383.00,VWS V14.01,2013-01-04 18:26:00,
2013-01-04 10:31:00,20.8,14.1,30.69,SE,137,2.0,2.0,75,0.00,,BKN220,0.00,388.00,VWS V14.01,2013-01-04 18:31:00,
2013-01-04 10:36:00,21.9,15.2,30.69,SE,137,2.0,2.0,75,0.00,,BKN220,0.00,394.00,VWS V14.01,2013-01-04 18:36:00,
2013-01-04 10:41:00,20.9,13.3,30.68,SE,137,0.0,0.0,72,0.00,,BKN220,0.00,396.00,VWS V14.01,2013-01-04 18:41:00,
2013-01-04 10:46:00,21.3,14.6,30.68,SE,137,2.0,2.0,75,0.00,,BKN220,0.00,403.00,VWS V14.01,2013-01-04 18:46:00,
2013-01-04 10:51:00,21.8,14.5,30.68,SE,137,0.0,0.0,73,0.00,,BKN220,0.00,408.00,VWS V14.01,2013-01-04 18:51:00,
2013-01-04 10:56:00,22.6,14.6,30.67,SE,137,0.0,2.0,71,0.00,,BKN220,0.00,411.00,VWS V14.01,2013-01-04 18:56:00,
2013-01-04 11:01:00,22.8,15.1,30.67,SE,137,0.0,3.0,72,0.00,,SCT220,0.00,415.00,VWS V14.01,2013-01-04 19:01:00,
2013-01-04 11:06:00,23.6,14.9,30.67,ENE,78,2.0,2.0,69,0.00,,SCT220,0.00,424.00,VWS V14.01,2013-01-04 19:06:00,
2013-01-04 11:11:00,22.4,14.8,30.66,SE,132,3.0,3.0,72,0.00,,SCT220,0.00,424.00,VWS V14.01,2013-01-04 19:11:00,
2013-01-04 11:16:00,23.6,15.9,30.65,East,80,3.0,3.0,72,0.00,,SCT220,0.00,432.00,VWS V14.01,2013-01-04 19:16:00,
2013-01-04 11:21:00,23.6,15.3,30.65,ENE,76,0.0,1.0,70,0.00,,SCT220,0.00,446.00,VWS V14.01,2013-01-04 19:21:00,
2013-01-04 11:26:00,24.3,15.3,30.65,NE,52,1.0,3.0,68,0.00,,SCT220,0.00,439.00,VWS V14.01,2013-01-04 19:26:00,
2013-01-04 11:31:00,23.1,15.1,30.65,ENE,68,1.0,3.0,71,0.00,,SCT220,0.00,441.00,VWS V14.01,2013-01-04 19:31:00,
2013-01-04 11:36:00,23.5,15.2,30.65,East,101,2.0,4.0,70,0.00,,SCT220,0.00,443.00,VWS V14.01,2013-01-04 19:36:00,
2013-01-04 11:41:00,24.0,15.0,30.65,East,90,3.0,3.0,68,0.00,,SCT220,0.00,443.00,VWS V14.01,2013-01-04 19:41:00,
2013-01-04 11:46:00,24.8,15.8,30.64,East,100,1.0,2.0,68,0.00,,SCT220,0.00,443.00,VWS V14.01,2013-01-04 19:46:00,
2013-01-04 11:51:00,25.1,15.7,30.64,ENE,61,0.0,1.0,67,0.00,,SCT220,0.00,445.00,VWS V14.01,2013-01-04 19:51:00,
2013-01-04 11:56:00,26.2,16.4,30.64,East,94,0.0,1.0,66,0.00,,SCT220,0.00,448.00,VWS V14.01,2013-01-04 19:56:00,
2013-01-04 12:01:00,25.1,16.0,30.64,NE,50,3.0,3.0,68,0.00,,SCT220,0.00,448.00,VWS V14.01,2013-01-04 20:01:00,
2013-01-04 12:06:00,24.5,15.8,30.63,NE,43,2.0,2.0,69,0.00,,SCT220,0.00,450.00,VWS V14.01,2013-01-04 20:06:00,
2013-01-04 12:11:00,24.2,15.8,30.62,NE,49,5.0,5.0,70,0.00,,SCT220,0.00,450.00,VWS V14.01,2013-01-04 20:11:00,
2013-01-04 12:16:00,24.8,16.4,30.62,NNE,27,2.0,2.0,70,0.00,,SCT220,0.00,450.00,VWS V14.01,2013-01-04 20:16:00,
2013-01-04 12:21:00,25.8,16.7,30.62,NE,55,0.0,2.0,68,0.00,,SCT220,0.00,450.00,VWS V14.01,2013-01-04 20:21:00,
2013-01-04 12:26:00,26.4,16.9,30.62,NE,53,4.0,4.0,67,0.00,,SCT220,0.00,446.00,VWS V14.01,2013-01-04 20:26:00,
2013-01-04 12:32:00,25.2,16.1,30.62,NE,47,0.0,1.0,68,0.00,,SCT220,0.00,302.00,VWS V14.01,2013-01-04 20:32:00,
2013-01-04 12:37:00,26.4,16.6,30.62,NNE,24,3.0,4.0,66,0.00,,SCT220,0.00,461.00,VWS V14.01,2013-01-04 20:37:00,
2013-01-04 12:42:00,25.4,16.3,30.61,NNE,23,0.0,0.0,68,0.00,,SCT220,0.00,436.00,VWS V14.01,2013-01-04 20:42:00,
2013-01-04 12:47:00,26.7,16.9,30.61,ENE,61,1.0,3.0,66,0.00,,SCT220,0.00,466.00,VWS V14.01,2013-01-04 20:47:00,
2013-01-04 12:52:00,27.0,17.2,30.60,ESE,111,1.0,4.0,66,0.00,,SCT220,0.00,387.00,VWS V14.01,2013-01-04 20:52:00,
2013-01-04 12:57:00,26.4,16.6,30.60,NE,51,3.0,5.0,66,0.00,,SCT220,0.00,346.00,VWS V14.01,2013-01-04 20:57:00,
2013-01-04 13:02:00,27.2,17.7,30.61,SSE,147,0.0,3.0,67,0.00,,BKN220,0.00,401.00,VWS V14.01,2013-01-04 21:02:00,
2013-01-04 13:07:00,26.7,16.5,30.60,ENE,57,0.0,3.0,65,0.00,,BKN220,0.00,462.00,VWS V14.01,2013-01-04 21:07:00,
2013-01-04 13:12:00,26.1,16.7,30.60,NNE,27,0.0,2.0,67,0.00,,BKN220,0.00,446.00,VWS V14.01,2013-01-04 21:12:00,
2013-01-04 13:17:00,27.6,17.4,30.60,East,84,2.0,5.0,65,0.00,,BKN220,0.00,424.00,VWS V14.01,2013-01-04 21:17:00,
2013-01-04 13:22:00,27.3,17.1,30.60,East,89,1.0,2.0,65,0.00,,BKN220,0.00,411.00,VWS V14.01,2013-01-04 21:22:00,
2013-01-04 13:27:00,27.5,16.9,30.59,ENE,65,1.0,6.0,64,0.00,,BKN220,0.00,404.00,VWS V14.01,2013-01-04 21:27:00,
2013-01-04 13:32:00,27.0,16.5,30.59,NE,39,1.0,5.0,64,0.00,,BKN220,0.00,396.00,VWS V14.01,2013-01-04 21:32:00,
2013-01-04 13:37:00,26.8,16.6,30.59,NE,53,0.0,1.0,65,0.00,,BKN220,0.00,387.00,VWS V14.01,2013-01-04 21:37:00,
2013-01-04 13:42:00,27.5,16.9,30.59,ENE,62,1.0,5.0,64,0.00,,BKN220,0.00,381.00,VWS V14.01,2013-01-04 21:42:00,
2013-01-04 13:47:00,27.4,16.8,30.59,NE,49,4.0,4.0,64,0.00,,BKN220,0.00,378.00,VWS V14.01,2013-01-04 21:47:00,
2013-01-04 13:52:00,27.8,17.2,30.58,NE,47,3.0,4.0,64,0.00,,BKN220,0.00,380.00,VWS V14.01,2013-01-04 21:52:00,
2013-01-04 13:57:00,28.1,17.5,30.58,East,93,3.0,5.0,64,0.00,,BKN220,0.00,385.00,VWS V14.01,2013-01-04 21:57:00,
2013-01-04 14:02:00,28.4,17.1,30.59,ENE,61,1.0,3.0,62,0.00,,SCT220,0.00,406.00,VWS V14.01,2013-01-04 22:02:00,
2013-01-04 14:07:00,28.8,17.4,30.59,East,90,0.0,1.0,62,0.00,,SCT220,0.00,392.00,VWS V14.01,2013-01-04 22:07:00,
2013-01-04 14:12:00,27.8,16.9,30.59,NE,53,4.0,5.0,63,0.00,,SCT220,0.00,381.00,VWS V14.01,2013-01-04 22:12:00,
2013-01-04 14:17:00,27.6,17.0,30.59,NE,50,3.0,4.0,64,0.00,,SCT220,0.00,339.00,VWS V14.01,2013-01-04 22:17:00,
2013-01-04 14:22:00,27.4,16.5,30.59,NE,51,2.0,4.0,63,0.00,,SCT220,0.00,146.00,VWS V14.01,2013-01-04 22:22:00,
2013-01-04 14:27:00,27.2,16.6,30.59,NE,44,1.0,3.0,64,0.00,,SCT220,0.00,220.00,VWS V14.01,2013-01-04 22:27:00,
2013-01-04 14:32:00,27.5,16.9,30.59,North,5,2.0,4.0,64,0.00,,SCT220,0.00,334.00,VWS V14.01,2013-01-04 22:32:00,
2013-01-04 14:37:00,27.5,16.9,30.59,NE,51,4.0,7.0,64,0.00,,SCT220,0.00,295.00,VWS V14.01,2013-01-04 22:37:00,
2013-01-04 14:42:00,27.9,17.3,30.59,NE,53,2.0,3.0,64,0.00,,SCT220,0.00,276.00,VWS V14.01,2013-01-04 22:42:00,
2013-01-04 14:47:00,28.7,17.7,30.59,ENE,76,3.0,5.0,63,0.00,,SCT220,0.00,260.00,VWS V14.01,2013-01-04 22:47:00,
2013-01-04 14:52:00,28.0,16.7,30.59,NE,55,2.0,5.0,62,0.00,,SCT220,0.00,244.00,VWS V14.01,2013-01-04 22:52:00,
2013-01-04 14:57:00,27.7,16.8,30.59,ENE,60,0.0,3.0,63,0.00,,SCT220,0.00,230.00,VWS V14.01,2013-01-04 22:57:00,
2013-01-04 15:02:00,28.8,17.4,30.59,East,81,0.0,4.0,62,0.00,,BKN200,0.00,230.00,VWS V14.01,2013-01-04 23:02:00,
2013-01-04 15:07:00,28.1,16.8,30.59,NE,55,5.0,5.0,62,0.00,,BKN200,0.00,221.00,VWS V14.01,2013-01-04 23:07:00,
2013-01-04 15:12:00,27.7,17.1,30.59,NE,48,2.0,4.0,64,0.00,,BKN200,0.00,204.00,VWS V14.01,2013-01-04 23:12:00,
2013-01-04 15:17:00,27.9,17.3,30.59,NE,55,2.0,5.0,64,0.00,,BKN200,0.00,185.00,VWS V14.01,2013-01-04 23:17:00,
2013-01-04 15:22:00,28.3,17.3,30.59,ENE,67,3.0,4.0,63,0.00,,BKN200,0.00,169.00,VWS V14.01,2013-01-04 23:22:00,
2013-01-04 15:27:00,27.8,17.2,30.59,NE,50,2.0,4.0,64,0.00,,BKN200,0.00,151.00,VWS V14.01,2013-01-04 23:27:00,
2013-01-04 15:32:00,28.5,17.9,30.59,ENE,69,1.0,2.0,64,0.00,,BKN200,0.00,134.00,VWS V14.01,2013-01-04 23:32:00,
2013-01-04 15:37:00,28.2,17.6,30.59,East,84,1.0,2.0,64,0.00,,BKN200,0.00,114.00,VWS V14.01,2013-01-04 23:37:00,
2013-01-04 15:42:00,28.0,17.4,30.59,NE,39,2.0,3.0,64,0.00,,BKN200,0.00,98.00,VWS V14.01,2013-01-04 23:42:00,
2013-01-04 15:47:00,27.9,17.3,30.58,NE,39,0.0,0.0,64,0.00,,BKN200,0.00,83.00,VWS V14.01,2013-01-04 23:47:00,
2013-01-04 15:52:00,27.8,17.2,30.58,NE,40,2.0,3.0,64,0.00,,BKN200,0.00,69.00,VWS V14.01,2013-01-04 23:52:00,
2013-01-04 15:57:00,27.8,17.6,30.58,ENE,72,1.0,2.0,65,0.00,,BKN200,0.00,58.00,VWS V14.01,2013-01-04 23:57:00,
2013-01-04 16:02:00,28.4,17.8,30.58,East,80,0.0,5.0,64,0.00,,SCT200,0.00,44.00,VWS V14.01,2013-01-05 00:02:00,
2013-01-04 16:07:00,28.0,17.8,30.58,ENE,71,1.0,2.0,65,0.00,,SCT200,0.00,33.00,VWS V14.01,2013-01-05 00:07:00,
2013-01-04 16:12:00,27.7,17.5,30.58,East,92,0.0,3.0,65,0.00,,SCT200,0.00,25.00,VWS V14.01,2013-01-05 00:12:00,
2013-01-04 16:17:00,27.7,17.5,30.57,East,92,0.0,2.0,65,0.00,,SCT200,0.00,19.00,VWS V14.01,2013-01-05 00:17:00,
2013-01-04 16:22:00,27.6,17.4,30.57,East,92,1.0,2.0,65,0.00,,SCT200,0.00,18.00,VWS V14.01,2013-01-05 00:22:00,
2013-01-04 16:27:00,27.2,17.0,30.58,East,92,0.0,0.0,65,0.00,,SCT200,0.00,14.00,VWS V14.01,2013-01-05 00:27:00,
2013-01-04 16:32:00,27.0,17.2,30.58,East,92,0.0,1.0,66,0.00,,SCT200,0.00,11.00,VWS V14.01,2013-01-05 00:32:00,
2013-01-04 16:37:00,26.9,17.1,30.58,East,92,0.0,1.0,66,0.00,,SCT200,0.00,9.00,VWS V14.01,2013-01-05 00:37:00,
2013-01-04 16:42:00,26.7,17.2,30.58,East,92,0.0,1.0,67,0.00,,SCT200,0.00,5.00,VWS V14.01,2013-01-05 00:42:00,
2013-01-04 16:47:00,26.5,17.0,30.58,East,92,0.0,0.0,67,0.00,,SCT200,0.00,0.00,VWS V14.01,2013-01-05 00:47:00,
2013-01-04 16:52:00,26.3,17.2,30.58,East,92,0.0,1.0,68,0.00,,SCT200,0.00,0.00,VWS V14.01,2013-01-05 00:52:00,
2013-01-04 16:57:00,26.0,16.9,30.58,East,92,0.0,1.0,68,0.00,,SCT200,0.00,0.00,VWS V14.01,2013-01-05 00:57:00,
2013-01-04 17:02:00,25.8,17.0,30.58,East,92,0.0,0.0,69,0.00,,SCT200,0.00,0.00,VWS V14.01,2013-01-05 01:02:00,
2013-01-04 17:07:00,25.6,16.9,30.58,East,92,0.0,1.0,69,0.00,,SCT200,0.00,0.00,VWS V14.01,2013-01-05 01:07:00,
2013-01-04 17:12:00,25.3,16.9,30.58,East,92,0.0,1.0,70,0.00,,SCT200,0.00,0.00,VWS V14.01,2013-01-05 01:12:00,
2013-01-04 17:17:00,25.1,16.7,30.58,East,92,0.0,0.0,70,0.00,,SCT200,0.00,0.00,VWS V14.01,2013-01-05 01:17:00,
2013-01-04 17:22:00,25.1,17.0,30.58,East,92,0.0,0.0,71,0.00,,SCT200,0.00,0.00,VWS V14.01,2013-01-05 01:22:00,
2013-01-04 17:27:00,24.9,16.8,30.58,East,92,0.0,1.0,71,0.00,,SCT200,0.00,0.00,VWS V14.01,2013-01-05 01:27:00,
2013-01-04 17:32:00,24.8,16.8,30.58,East,92,0.0,0.0,71,0.00,,SCT200,0.00,0.00,VWS V14.01,2013-01-05 01:32:00,
2013-01-04 17:37:00,24.6,16.5,30.58,East,92,0.0,0.0,71,0.00,,SCT200,0.00,0.00,VWS V14.01,2013-01-05 01:37:00,
2013-01-04 17:42:00,24.3,16.3,30.59,East,92,0.0,0.0,71,0.00,,SCT200,0.00,0.00,VWS V14.01,2013-01-05 01:42:00,
2013-01-04 17:48:00,24.2,16.2,30.59,East,92,0.0,0.0,71,0.00,,SCT200,0.00,0.00,VWS V14.01,2013-01-05 01:48:00,
2013-01-04 17:53:00,24.0,16.0,30.59,East,92,0.0,0.0,71,0.00,,SCT200,0.00,0.00,VWS V14.01,2013-01-05 01:53:00,
2013-01-04 17:58:00,23.7,16.0,30.58,East,92,0.0,0.0,72,0.00,,SCT200,0.00,0.00,VWS V14.01,2013-01-05 01:58:00,
2013-01-04 18:03:00,23.4,16.0,30.58,East,92,0.0,0.0,73,0.00,,FEW200,0.00,0.00,VWS V14.01,2013-01-05 02:03:00,
2013-01-04 18:08:00,23.2,15.8,30.58,East,92,0.0,0.0,73,0.00,,FEW200,0.00,0.00,VWS V14.01,2013-01-05 02:08:00,
2013-01-04 18:13:00,22.7,15.7,30.59,East,92,0.0,0.0,74,0.00,,FEW200,0.00,0.00,VWS V14.01,2013-01-05 02:13:00,
2013-01-04 18:18:00,22.5,15.8,30.58,East,92,0.0,0.0,75,0.00,,FEW200,0.00,0.00,VWS V14.01,2013-01-05 02:18:00,
2013-01-04 18:23:00,22.3,15.6,30.59,East,92,0.0,0.0,75,0.00,,FEW200,0.00,0.00,VWS V14.01,2013-01-05 02:23:00,
2013-01-04 18:28:00,22.1,15.4,30.59,East,92,0.0,0.0,75,0.00,,FEW200,0.00,0.00,VWS V14.01,2013-01-05 02:28:00,
2013-01-04 18:33:00,21.8,15.4,30.59,East,92,0.0,0.0,76,0.00,,FEW200,0.00,0.00,VWS V14.01,2013-01-05 02:33:00,
2013-01-04 18:38:00,21.6,15.2,30.59,East,92,0.0,0.0,76,0.00,,FEW200,0.00,0.00,VWS V14.01,2013-01-05 02:38:00,
2013-01-04 18:43:00,21.4,15.0,30.59,East,92,0.0,0.0,76,0.00,,FEW200,0.00,0.00,VWS V14.01,2013-01-05 02:43:00,
2013-01-04 18:48:00,21.2,14.8,30.59,East,92,1.0,1.0,76,0.00,,FEW200,0.00,0.00,VWS V14.01,2013-01-05 02:48:00,
2013-01-04 18:53:00,20.9,14.8,30.59,East,92,1.0,2.0,77,0.00,,FEW200,0.00,0.00,VWS V14.01,2013-01-05 02:53:00,
2013-01-04 18:58:00,20.7,14.9,30.59,East,92,0.0,2.0,78,0.00,,FEW200,0.00,0.00,VWS V14.01,2013-01-05 02:58:00,
2013-01-04 19:03:00,20.6,14.8,30.59,East,92,0.0,1.0,78,0.00,,FEW200,0.00,0.00,VWS V14.01,2013-01-05 03:03:00,
2013-01-04 19:08:00,20.4,14.6,30.59,East,92,0.0,2.0,78,0.00,,FEW200,0.00,0.00,VWS V14.01,2013-01-05 03:08:00,
2013-01-04 19:13:00,20.1,14.4,30.59,East,92,0.0,2.0,78,0.00,,FEW200,0.00,0.00,VWS V14.01,2013-01-05 03:13:00,
2013-01-04 19:18:00,19.9,14.4,30.59,East,92,1.0,2.0,79,0.00,,FEW200,0.00,0.00,VWS V14.01,2013-01-05 03:18:00,
2013-01-04 19:23:00,19.7,14.3,30.59,East,92,0.0,1.0,79,0.00,,FEW200,0.00,0.00,VWS V14.01,2013-01-05 03:23:00,
2013-01-04 19:28:00,19.5,14.4,30.59,East,92,0.0,1.0,80,0.00,,FEW200,0.00,0.00,VWS V14.01,2013-01-05 03:28:00,
2013-01-04 19:33:00,19.5,14.4,30.59,East,92,0.0,0.0,80,0.00,,FEW200,0.00,0.00,VWS V14.01,2013-01-05 03:33:00,
2013-01-04 19:38:00,19.5,14.4,30.59,East,92,0.0,0.0,80,0.00,,FEW200,0.00,0.00,VWS V14.01,2013-01-05 03:38:00,
2013-01-04 19:43:00,19.4,14.2,30.59,East,92,0.0,1.0,80,0.00,,FEW200,0.00,0.00,VWS V14.01,2013-01-05 03:43:00,
2013-01-04 19:48:00,19.3,13.9,30.60,East,92,0.0,0.0,79,0.00,,FEW200,0.00,0.00,VWS V14.01,2013-01-05 03:48:00,
2013-01-04 19:53:00,19.1,13.7,30.60,East,92,0.0,1.0,79,0.00,,FEW200,0.00,0.00,VWS V14.01,2013-01-05 03:53:00,
2013-01-04 19:58:00,18.7,13.3,30.59,East,92,0.0,1.0,79,0.00,,FEW200,0.00,0.00,VWS V14.01,2013-01-05 03:58:00,
2013-01-04 20:03:00,18.6,13.2,30.59,East,92,0.0,0.0,79,0.00,,FEW200,0.00,0.00,VWS V14.01,2013-01-05 04:03:00,
2013-01-04 20:08:00,18.4,13.0,30.59,East,92,0.0,0.0,79,0.00,,FEW200,0.00,0.00,VWS V14.01,2013-01-05 04:08:00,
2013-01-04 20:13:00,18.2,12.8,30.60,East,92,0.0,0.0,79,0.00,,FEW200,0.00,0.00,VWS V14.01,2013-01-05 04:13:00,
2013-01-04 20:18:00,17.9,12.8,30.60,East,92,0.0,0.0,80,0.00,,FEW200,0.00,0.00,VWS V14.01,2013-01-05 04:18:00,
2013-01-04 20:23:00,17.7,12.9,30.59,East,92,0.0,0.0,81,0.00,,FEW200,0.00,0.00,VWS V14.01,2013-01-05 04:23:00,
2013-01-04 20:28:00,17.5,12.7,30.59,East,92,0.0,0.0,81,0.00,,FEW200,0.00,0.00,VWS V14.01,2013-01-05 04:28:00,
2013-01-04 20:33:00,17.4,12.6,30.59,East,92,0.0,0.0,81,0.00,,FEW200,0.00,0.00,VWS V14.01,2013-01-05 04:33:00,
2013-01-04 20:38:00,17.3,12.5,30.60,East,92,0.0,0.0,81,0.00,,FEW200,0.00,0.00,VWS V14.01,2013-01-05 04:38:00,
2013-01-04 20:43:00,17.2,12.4,30.60,East,92,0.0,0.0,81,0.00,,FEW200,0.00,0.00,VWS V14.01,2013-01-05 04:43:00,
2013-01-04 20:48:00,17.1,12.3,30.60,East,92,0.0,0.0,81,0.00,,FEW200,0.00,0.00,VWS V14.01,2013-01-05 04:48:00,
2013-01-04 20:53:00,16.9,12.1,30.60,East,92,0.0,0.0,81,0.00,,FEW200,0.00,0.00,VWS V14.01,2013-01-05 04:53:00,
2013-01-04 20:58:00,16.7,11.6,30.60,East,92,0.0,0.0,80,0.00,,FEW200,0.00,0.00,VWS V14.01,2013-01-05 04:58:00,
2013-01-04 21:00:00,16.6,11.5,30.60,East,92,0.0,0.0,80,0.00,,FEW200,0.00,0.00,VWS V14.01,2013-01-05 05:00:00,
2013-01-04 21:01:00,16.6,11.5,30.60,East,92,0.0,0.0,80,0.00,,FEW200,0.00,0.00,VWS V14.01,2013-01-05 05:01:00,
2013-01-04 21:06:00,16.4,11.6,30.60,East,92,0.0,0.0,81,0.00,,FEW200,0.00,0.00,VWS V14.01,2013-01-05 05:06:00,
2013-01-04 21:11:00,16.2,11.4,30.61,East,92,0.0,0.0,81,0.00,,FEW200,0.00,0.00,VWS V14.01,2013-01-05 05:11:00,
2013-01-04 21:16:00,16.1,11.3,30.61,East,92,0.0,0.0,81,0.00,,FEW200,0.00,0.00,VWS V14.01,2013-01-05 05:16:00,
2013-01-04 21:21:00,15.9,11.4,30.61,East,92,0.0,0.0,82,0.00,,FEW200,0.00,0.00,VWS V14.01,2013-01-05 05:21:00,
2013-01-04 21:26:00,15.7,10.9,30.61,East,92,0.0,0.0,81,0.00,,FEW200,0.00,0.00,VWS V14.01,2013-01-05 05:26:00,
2013-01-04 21:31:00,15.5,10.7,30.61,East,92,0.0,0.0,81,0.00,,FEW200,0.00,0.00,VWS V14.01,2013-01-05 05:31:00,
2013-01-04 21:36:00,15.3,10.5,30.61,East,92,0.0,0.0,81,0.00,,FEW200,0.00,0.00,VWS V14.01,2013-01-05 05:36:00,
2013-01-04 21:41:00,15.0,10.2,30.61,East,92,0.0,0.0,81,0.00,,FEW200,0.00,0.00,VWS V14.01,2013-01-05 05:41:00,
2013-01-04 21:46:00,14.8,10.0,30.61,East,92,0.0,0.0,81,0.00,,FEW200,0.00,0.00,VWS V14.01,2013-01-05 05:46:00,
2013-01-04 21:51:00,14.6,9.8,30.61,East,92,0.0,0.0,81,0.00,,FEW200,0.00,0.00,VWS V14.01,2013-01-05 05:51:00,
2013-01-04 21:56:00,14.4,9.9,30.61,East,92,0.0,0.0,82,0.00,,FEW200,0.00,0.00,VWS V14.01,2013-01-05 05:56:00,
2013-01-04 22:01:00,14.1,9.6,30.61,East,92,1.0,2.0,82,0.00,,FEW200,0.00,0.00,VWS V14.01,2013-01-05 06:01:00,
2013-01-04 22:06:00,13.9,9.7,30.61,East,92,0.0,2.0,83,0.00,,FEW200,0.00,0.00,VWS V14.01,2013-01-05 06:06:00,
2013-01-04 22:11:00,13.7,9.8,30.61,East,92,1.0,1.0,84,0.00,,FEW200,0.00,0.00,VWS V14.01,2013-01-05 06:11:00,
2013-01-04 22:16:00,13.7,9.8,30.62,East,92,0.0,0.0,84,0.00,,FEW200,0.00,0.00,VWS V14.01,2013-01-05 06:16:00,
2013-01-04 22:21:00,13.7,10.0,30.62,East,92,1.0,2.0,85,0.00,,FEW200,0.00,0.00,VWS V14.01,2013-01-05 06:21:00,
2013-01-04 22:26:00,13.6,9.9,30.62,East,92,1.0,2.0,85,0.00,,FEW200,0.00,0.00,VWS V14.01,2013-01-05 06:26:00,
2013-01-04 22:31:00,13.6,9.9,30.62,East,92,0.0,0.0,85,0.00,,FEW200,0.00,0.00,VWS V14.01,2013-01-05 06:31:00,
2013-01-04 22:36:00,13.5,9.8,30.62,East,92,0.0,0.0,85,0.00,,FEW200,0.00,0.00,VWS V14.01,2013-01-05 06:36:00,
2013-01-04 22:41:00,13.6,9.9,30.62,East,92,0.0,0.0,85,0.00,,FEW200,0.00,0.00,VWS V14.01,2013-01-05 06:41:00,
2013-01-04 22:46:00,13.6,9.9,30.62,East,92,0.0,0.0,85,0.00,,FEW200,0.00,0.00,VWS V14.01,2013-01-05 06:46:00,
2013-01-04 22:51:00,13.5,9.8,30.62,East,92,0.0,0.0,85,0.00,,FEW200,0.00,0.00,VWS V14.01,2013-01-05 06:51:00,
2013-01-04 22:56:00,13.5,9.8,30.62,East,92,0.0,0.0,85,0.00,,FEW200,0.00,0.00,VWS V14.01,2013-01-05 06:56:00,
2013-01-04 23:01:00,13.5,9.8,30.62,East,92,0.0,0.0,85,0.00,,CLR,0.00,0.00,VWS V14.01,2013-01-05 07:01:00,
2013-01-04 23:06:00,13.4,9.7,30.62,East,92,0.0,0.0,85,0.00,,CLR,0.00,0.00,VWS V14.01,2013-01-05 07:06:00,
2013-01-04 23:11:00,13.2,9.6,30.62,East,92,1.0,1.0,85,0.00,,CLR,0.00,0.00,VWS V14.01,2013-01-05 07:11:00,
2013-01-04 23:16:00,12.9,9.0,30.62,East,92,1.0,1.0,84,0.00,,CLR,0.00,0.00,VWS V14.01,2013-01-05 07:16:00,
2013-01-04 23:21:00,12.7,8.8,30.62,East,92,1.0,1.0,84,0.00,,CLR,0.00,0.00,VWS V14.01,2013-01-05 07:21:00,
2013-01-04 23:26:00,12.5,8.6,30.62,East,92,0.0,0.0,84,0.00,,CLR,0.00,0.00,VWS V14.01,2013-01-05 07:26:00,
2013-01-04 23:31:00,12.2,8.3,30.62,East,92,0.0,0.0,84,0.00,,CLR,0.00,0.00,VWS V14.01,2013-01-05 07:31:00,
2013-01-04 23:36:00,11.9,8.0,30.62,East,92,0.0,0.0,84,0.00,,CLR,0.00,0.00,VWS V14.01,2013-01-05 07:36:00,
2013-01-04 23:41:00,11.8,7.9,30.62,East,92,0.0,0.0,84,0.00,,CLR,0.00,0.00,VWS V14.01,2013-01-05 07:41:00,
2013-01-04 23:46:00,11.6,7.7,30.62,East,92,0.0,0.0,84,0.00,,CLR,0.00,0.00,VWS V14.01,2013-01-05 07:46:00,
2013-01-04 23:51:00,11.5,7.6,30.62,East,92,0.0,0.0,84,0.00,,CLR,0.00,0.00,VWS V14.01,2013-01-05 07:51:00,
2013-01-04 23:56:00,11.4,7.8,30.61,East,92,0.0,0.0,85,0.00,,CLR,0.00,0.00,VWS V14.01,2013-01-05 07:56:00,